Time;durP1;ratioP1;P1;durP2;ratioP2;P2;SDS_P1;SDS_P2;PMS_P1;PMS_P2;Temp;Humidity;BMP_temperature;BMP_pressure;BME280_temperature;BME280_humidity;BME280_pressure;Samples;Min_cycle;Max_cycle;Signal;HPM_P1;HPM_P2
2023/05/30 00:18:58;;;;;;;10.75;3.70;;;;;;;;;;1022725;23;20052;-88
2023/05/30 00:22:04;;;;;;;13.37;5.00;;;12.20;99.90;;;;;;4906615;29;20079;-87
2023/05/30 00:28:25;;;;;;;10.68;3.83;;;;;;;;;;4904774;29;20070;-87
2023/05/30 00:31:52;;;;;;;9.18;3.25;;;12.90;99.90;;;;;;4881069;29;20064;-86
2023/05/30 00:34:58;;;;;;;;;;;;;;;;;;;;;
2023/05/30 00:44:49;;;;;;;;;;;;;;;;;;;;;
2023/05/30 00:50:53;;;;;;;9.35;3.67;;;12.40;1.00;;;;;;5296407;23;20043;-87
2023/05/30 01:31:27;;;;;;;9.27;3.47;;;12.30;1.00;;;;;;2784572;23;20090;-58
2023/05/30 01:33:53;;;;;;;9.73;3.22;;;12.40;1.00;;;;;;4911797;28;20053;-60
2023/05/30 01:36:19;;;;;;;10.82;4.00;;;11.90;1.00;;;;;;4917049;29;20051;-60
2023/05/30 01:38:45;;;;;;;10.73;3.90;;;;;;;;;;4914770;29;20087;-60
2023/05/30 01:41:24;;;;;;;11.63;3.45;;;12.20;1.00;;;;;;4899579;29;20130;-59
2023/05/30 01:44:03;;;;;;;12.02;3.50;;;12.40;1.00;;;;;;4917231;29;20040;-59
2023/05/30 01:46:31;;;;;;;11.50;3.88;;;12.40;1.00;;;;;;4917804;29;20044;-59
2023/05/30 01:48:59;;;;;;;9.48;3.30;;;12.30;1.00;;;;;;4917286;29;20197;-60
2023/05/30 01:51:38;;;;;;;10.82;3.55;;;11.80;1.00;;;;;;4895552;29;20164;-59
2023/05/30 01:54:07;;;;;;;14.15;4.13;;;12.10;1.00;;;;;;4915798;29;20047;-59
2023/05/30 01:56:35;;;;;;;11.85;3.38;;;12.10;1.00;;;;;;4917142;29;20822;-59
2023/05/30 01:59:05;;;;;;;10.30;3.72;;;11.50;1.00;;;;;;4917426;29;20073;-60
2023/05/30 02:01:31;;;;;;;9.02;3.72;;;11.40;1.00;;;;;;4914080;29;20059;-60
2023/05/30 02:03:57;;;;;;;13.20;4.07;;;11.70;1.00;;;;;;4911804;29;20169;-58
2023/05/30 02:06:23;;;;;;;12.68;3.53;;;12.20;1.00;;;;;;4916976;29;20047;-58
2023/05/30 02:08:50;;;;;;;9.43;3.47;;;11.30;1.00;;;;;;4899857;29;20054;-60
2023/05/30 02:11:16;;;;;;;11.68;3.90;;;;;;;;;;4915597;29;20058;-60
2023/05/30 02:13:41;;;;;;;9.63;3.53;;;11.30;1.00;;;;;;4911500;29;20043;-60
2023/05/30 02:16:07;;;;;;;9.80;3.90;;;12.30;1.00;;;;;;4915082;29;20055;-60
2023/05/30 02:18:34;;;;;;;8.57;3.63;;;11.40;1.00;;;;;;4896360;29;20043;-59
2023/05/30 02:21:00;;;;;;;12.43;3.63;;;11.70;1.00;;;;;;4915067;29;20035;-60
2023/05/30 02:23:26;;;;;;;16.40;4.38;;;;;;;;;;4914719;29;20042;-60
2023/05/30 02:25:52;;;;;;;12.30;4.00;;;11.30;1.00;;;;;;4899129;29;20823;-59
2023/05/30 02:28:18;;;;;;;10.50;3.72;;;12.00;1.00;;;;;;4917261;29;20058;-59
2023/05/30 02:30:43;;;;;;;11.35;3.42;;;12.30;1.00;;;;;;4914684;29;20047;-59
2023/05/30 02:33:09;;;;;;;12.93;3.33;;;11.50;1.00;;;;;;4915347;29;20054;-60
2023/05/30 02:35:35;;;;;;;12.63;3.85;;;12.50;1.00;;;;;;4907746;29;20138;-58
2023/05/30 02:38:00;;;;;;;8.05;3.80;;;12.40;1.00;;;;;;4918025;29;20031;-58
2023/05/30 02:40:26;;;;;;;13.30;3.40;;;11.20;14.20;;;;;;4916037;29;20063;-59
2023/05/30 02:42:51;;;;;;;9.93;3.45;;;12.00;25.10;;;;;;4914392;29;20052;-59
2023/05/30 02:45:19;;;;;;;14.68;3.38;;;12.30;26.90;;;;;;4911324;29;20988;-59
2023/05/30 02:47:45;;;;;;;11.40;3.40;;;11.80;33.50;;;;;;4915232;29;20890;-58
2023/05/30 02:50:11;;;;;;;16.13;4.20;;;12.20;39.90;;;;;;4916322;29;20043;-60
2023/05/30 02:52:36;;;;;;;9.52;3.60;;;11.60;59.30;;;;;;4898984;29;20167;-58
2023/05/30 02:55:02;;;;;;;15.48;3.85;;;12.50;83.30;;;;;;4917108;29;20442;-60
2023/05/30 02:57:28;;;;;;;12.10;3.28;;;11.40;83.00;;;;;;4908824;29;20055;-60
2023/05/30 02:59:54;;;;;;;9.27;3.38;;;;;;;;;;4899674;29;20597;-60
2023/05/30 03:02:19;;;;;;;14.75;4.05;;;11.40;99.90;;;;;;4899080;29;20047;-58
2023/05/30 03:04:46;;;;;;;11.48;3.90;;;12.40;99.90;;;;;;4917108;29;20130;-60
2023/05/30 03:07:17;;;;;;;12.25;3.80;;;12.40;99.90;;;;;;4915285;29;20044;-60
2023/05/30 03:09:44;;;;;;;14.55;4.35;;;11.50;99.90;;;;;;4916487;29;20107;-59
2023/05/30 03:12:10;;;;;;;12.57;4.13;;;11.80;99.90;;;;;;4899559;29;20051;-59
2023/05/30 03:14:35;;;;;;;9.73;4.18;;;12.30;99.90;;;;;;4916263;29;20047;-61
2023/05/30 03:17:02;;;;;;;17.58;4.40;;;11.30;99.90;;;;;;4917567;29;20501;-59
2023/05/30 03:19:28;;;;;;;13.35;3.90;;;12.40;99.90;;;;;;4910728;29;20136;-60
2023/05/30 03:21:54;;;;;;;14.05;4.80;;;11.40;99.90;;;;;;4904767;29;20041;-58
2023/05/30 03:24:21;;;;;;;13.60;4.82;;;;;;;;;;4903144;29;20064;-59
2023/05/30 03:26:46;;;;;;;8.23;3.28;;;12.30;99.90;;;;;;4910841;29;20103;-60
2023/05/30 03:29:12;;;;;;;11.43;3.53;;;;;;;;;;4913249;29;20073;-59
2023/05/30 03:31:38;;;;;;;11.43;3.97;;;11.50;99.90;;;;;;4914477;29;20048;-59
2023/05/30 03:34:04;;;;;;;14.70;4.40;;;12.50;99.90;;;;;;4899583;29;20107;-59
2023/05/30 03:36:30;;;;;;;8.88;3.35;;;11.90;99.90;;;;;;4918608;29;20050;-59
2023/05/30 03:38:56;;;;;;;11.63;3.53;;;11.60;99.90;;;;;;4903702;29;20903;-59
2023/05/30 03:41:22;;;;;;;10.15;3.53;;;11.70;99.90;;;;;;4917375;29;20068;-59
2023/05/30 03:46:17;;;;;;;9.02;3.55;;;12.00;99.90;;;;;;4936659;29;20078;-61
2023/05/30 03:48:43;;;;;;;8.88;3.38;;;12.10;99.90;;;;;;4937065;29;20079;-61
2023/05/30 03:51:08;;;;;;;13.48;3.70;;;12.20;99.90;;;;;;4934071;29;20130;-61
2023/05/30 03:53:34;;;;;;;13.95;3.45;;;11.80;99.90;;;;;;4911968;29;20040;-61
2023/05/30 03:56:00;;;;;;;13.35;3.58;;;12.00;99.90;;;;;;4905711;29;20093;-61
2023/05/30 03:58:25;;;;;;;12.50;3.53;;;12.30;99.90;;;;;;4915326;29;20883;-61
2023/05/30 04:00:51;;;;;;;14.20;3.38;;;12.10;99.90;;;;;;4908998;29;20039;-60
2023/05/30 04:03:19;;;;;;;10.45;3.50;;;12.40;99.90;;;;;;4902862;29;20468;-61
2023/05/30 04:05:47;;;;;;;7.95;2.70;;;12.20;99.90;;;;;;4903578;29;20056;-62
2023/05/30 04:08:13;;;;;;;9.75;3.63;;;12.40;99.90;;;;;;4886794;29;20576;-62
2023/05/30 04:10:39;;;;;;;10.55;3.50;;;11.90;99.90;;;;;;4903667;29;20187;-61
2023/05/30 04:13:05;;;;;;;9.82;3.55;;;12.50;99.90;;;;;;4913187;29;20493;-61
2023/05/30 04:15:30;;;;;;;15.65;3.28;;;12.00;99.90;;;;;;4918769;29;20843;-61
2023/05/30 04:17:57;;;;;;;13.35;4.03;;;11.50;99.90;;;;;;4918347;29;20493;-61
2023/05/30 04:20:24;;;;;;;11.48;4.35;;;10.70;99.90;;;;;;4908016;29;20348;-61
2023/05/30 04:22:50;;;;;;;10.00;2.90;;;12.40;99.90;;;;;;4896927;29;20047;-61
2023/05/30 04:25:17;;;;;;;16.05;4.57;;;12.50;99.90;;;;;;4901753;29;20559;-61
2023/05/30 04:27:43;;;;;;;11.50;3.67;;;12.40;99.90;;;;;;4901724;29;20091;-61
2023/05/30 04:30:11;;;;;;;12.50;4.13;;;11.60;99.90;;;;;;4907654;29;20493;-61
2023/05/30 04:32:37;;;;;;;12.63;3.75;;;12.20;99.90;;;;;;4886277;29;20483;-62
2023/05/30 04:35:04;;;;;;;15.38;4.90;;;12.40;99.90;;;;;;4901071;29;20039;-61
2023/05/30 04:37:30;;;;;;;14.05;4.20;;;11.80;99.90;;;;;;4901518;29;20052;-62
2023/05/30 04:39:56;;;;;;;9.93;3.30;;;12.40;99.90;;;;;;4898782;29;20214;-62
2023/05/30 04:42:28;;;;;;;10.35;4.00;;;;;;;;;;4917470;29;20497;-62
2023/05/30 04:44:54;;;;;;;12.38;3.83;;;11.90;99.90;;;;;;4908298;29;20583;-62
2023/05/30 04:47:24;;;;;;;9.80;3.75;;;12.40;99.90;;;;;;4906002;29;20047;-61
2023/05/30 04:50:00;;;;;;;16.60;4.82;;;11.70;99.90;;;;;;4902762;29;20039;-61
2023/05/30 04:52:27;;;;;;;12.18;3.30;;;12.40;99.90;;;;;;4881776;29;20775;-61
2023/05/30 04:54:53;;;;;;;11.65;3.45;;;12.20;99.90;;;;;;4905263;29;20068;-61
2023/05/30 04:57:21;;;;;;;11.23;4.60;;;12.50;99.90;;;;;;4903429;29;20043;-61
2023/05/30 04:59:47;;;;;;;10.63;4.22;;;12.60;99.90;;;;;;4899317;29;20047;-62
2023/05/30 05:02:13;;;;;;;8.45;3.22;;;12.40;99.90;;;;;;4897064;29;20040;-62
2023/05/30 05:04:39;;;;;;;12.93;3.60;;;12.60;99.90;;;;;;4898226;29;20047;-61
2023/05/30 05:07:05;;;;;;;7.82;2.90;;;12.80;99.90;;;;;;4893269;29;20118;-61
2023/05/30 05:09:31;;;;;;;7.88;2.97;;;12.60;99.90;;;;;;4917107;29;20040;-62
2023/05/30 05:11:56;;;;;;;9.10;3.55;;;12.50;99.90;;;;;;4904708;29;20040;-62
2023/05/30 05:14:23;;;;;;;8.80;2.78;;;12.50;99.90;;;;;;4901905;29;20043;-62
2023/05/30 05:16:49;;;;;;;10.35;3.17;;;12.60;99.90;;;;;;4895701;29;20307;-62
2023/05/30 05:19:15;;;;;;;8.82;3.08;;;12.80;99.90;;;;;;4905778;29;20577;-62
2023/05/30 05:21:40;;;;;;;7.18;2.70;;;12.20;99.90;;;;;;4904547;29;20248;-61
2023/05/30 05:24:07;;;;;;;6.85;2.97;;;12.40;99.90;;;;;;4907384;29;20564;-61
2023/05/30 05:26:34;;;;;;;10.43;3.42;;;12.80;99.90;;;;;;4903049;29;20039;-61
2023/05/30 05:29:00;;;;;;;16.85;3.47;;;12.80;99.90;;;;;;4919013;29;20419;-61
2023/05/30 05:31:26;;;;;;;8.38;2.85;;;12.70;99.90;;;;;;4908016;29;20104;-61
2023/05/30 05:33:51;;;;;;;5.78;2.30;;;12.80;99.90;;;;;;4911119;29;20036;-60
2023/05/30 05:36:18;;;;;;;10.93;2.65;;;12.80;99.90;;;;;;4913703;29;20253;-61
2023/05/30 05:38:43;;;;;;;5.65;2.40;;;12.60;99.90;;;;;;4914212;29;20047;-61
2023/05/30 05:41:09;;;;;;;7.75;2.40;;;12.10;99.90;;;;;;4908189;29;20573;-60
2023/05/30 05:43:36;;;;;;;9.40;2.58;;;12.80;99.90;;;;;;4909060;29;20118;-61
2023/05/30 05:46:01;;;;;;;7.45;2.60;;;12.80;99.90;;;;;;4892524;29;20040;-61
2023/05/30 05:48:27;;;;;;;9.35;3.13;;;12.90;99.90;;;;;;4891583;29;20827;-60
2023/05/30 05:50:53;;;;;;;7.43;2.80;;;12.50;99.90;;;;;;4912410;29;20373;-60
2023/05/30 05:53:19;;;;;;;9.93;3.42;;;12.90;99.90;;;;;;4888898;29;20051;-61
2023/05/30 05:55:45;;;;;;;7.93;2.72;;;;;;;;;;4909047;29;20047;-61
2023/05/30 05:58:12;;;;;;;11.30;3.53;;;;;;;;;;4905695;29;20044;-60
2023/05/30 06:00:38;;;;;;;9.80;2.90;;;12.80;99.90;;;;;;4907968;29;20533;-61
2023/05/30 06:03:03;;;;;;;6.13;2.90;;;13.10;99.90;;;;;;4909134;29;20040;-61
2023/05/30 06:05:29;;;;;;;9.73;3.00;;;12.80;99.90;;;;;;4914211;29;20409;-61
2023/05/30 06:07:57;;;;;;;7.10;2.72;;;12.80;99.90;;;;;;4894012;29;20048;-61
2023/05/30 06:10:26;;;;;;;7.90;2.60;;;12.90;99.90;;;;;;4912568;29;20933;-61
2023/05/30 06:12:51;;;;;;;7.97;2.80;;;12.50;99.90;;;;;;4912874;29;20040;-61
2023/05/30 06:15:17;;;;;;;9.25;3.03;;;12.90;99.90;;;;;;4912259;29;20043;-62
2023/05/30 06:17:42;;;;;;;6.88;2.80;;;13.10;99.90;;;;;;4911057;29;20044;-62
2023/05/30 06:20:09;;;;;;;7.57;2.83;;;13.40;99.90;;;;;;4910599;29;20032;-62
2023/05/30 06:22:35;;;;;;;6.70;2.83;;;12.60;99.90;;;;;;4894762;29;20039;-62
2023/05/30 06:25:03;;;;;;;7.93;2.42;;;;;;;;;;4899062;29;20095;-61
2023/05/30 06:27:29;;;;;;;7.90;2.50;;;13.20;99.90;;;;;;4912392;29;20612;-61
2023/05/30 06:29:55;;;;;;;9.60;2.90;;;;;;;;;;4903211;29;20054;-62
2023/05/30 06:32:20;;;;;;;7.72;2.50;;;12.80;99.90;;;;;;4894006;29;20056;-62
2023/05/30 06:34:46;;;;;;;7.18;2.40;;;12.90;99.90;;;;;;4903586;29;20055;-62
2023/05/30 06:37:15;;;;;;;9.63;2.13;;;13.00;99.90;;;;;;4900587;29;20568;-62
2023/05/30 06:39:43;;;;;;;7.32;1.90;;;13.40;99.90;;;;;;4902979;29;20048;-61
2023/05/30 06:42:10;;;;;;;8.93;2.25;;;14.00;99.90;;;;;;4907130;29;20083;-61
2023/05/30 06:44:36;;;;;;;5.50;2.08;;;13.60;99.90;;;;;;4891108;29;20630;-61
2023/05/30 06:47:03;;;;;;;6.18;2.25;;;13.10;99.90;;;;;;4907628;29;20566;-61
2023/05/30 06:49:30;;;;;;;7.75;2.03;;;13.20;99.90;;;;;;4874336;29;20051;-61
2023/05/30 06:51:56;;;;;;;6.53;2.30;;;12.90;99.90;;;;;;4903468;29;20527;-60
2023/05/30 06:54:21;;;;;;;5.45;1.90;;;13.30;99.90;;;;;;4907089;29;20072;-61
2023/05/30 06:56:47;;;;;;;5.40;2.13;;;13.90;99.90;;;;;;4903156;29;20048;-60
2023/05/30 06:59:13;;;;;;;6.82;2.47;;;13.20;99.90;;;;;;4913138;29;20051;-61
2023/05/30 07:01:38;;;;;;;8.70;2.20;;;13.00;99.90;;;;;;4906651;29;20032;-61
2023/05/30 07:04:04;;;;;;;7.63;2.30;;;13.30;99.90;;;;;;4908572;29;20032;-61
2023/05/30 07:06:30;;;;;;;6.88;2.00;;;13.10;99.90;;;;;;4890324;29;20043;-61
2023/05/30 07:08:56;;;;;;;8.90;2.20;;;13.30;99.90;;;;;;4911751;29;20040;-60
2023/05/30 07:11:22;;;;;;;5.50;1.73;;;13.40;99.90;;;;;;4910052;29;20075;-61
2023/05/30 07:13:47;;;;;;;6.15;1.70;;;13.30;99.90;;;;;;4918078;29;20043;-61
2023/05/30 07:16:13;;;;;;;6.03;2.00;;;13.60;99.90;;;;;;4908067;29;20048;-61
2023/05/30 07:18:39;;;;;;;5.57;1.70;;;14.10;99.90;;;;;;4884806;29;20052;-61
2023/05/30 07:21:05;;;;;;;5.22;1.63;;;13.50;99.90;;;;;;4875180;29;20403;-61
2023/05/30 07:23:31;;;;;;;7.22;1.77;;;14.10;99.90;;;;;;4895647;29;20091;-61
2023/05/30 07:25:56;;;;;;;6.93;1.98;;;13.30;99.90;;;;;;4887644;29;20454;-61
2023/05/30 07:28:22;;;;;;;7.95;1.67;;;14.30;99.90;;;;;;4908179;29;20134;-61
2023/05/30 07:30:48;;;;;;;7.07;1.50;;;14.10;99.90;;;;;;4881789;29;20044;-61
2023/05/30 07:33:13;;;;;;;5.22;2.08;;;14.00;99.90;;;;;;4892451;29;20419;-60
2023/05/30 07:35:39;;;;;;;6.18;1.90;;;14.10;99.90;;;;;;4917693;29;20114;-61
2023/05/30 07:38:05;;;;;;;8.25;2.10;;;13.70;99.90;;;;;;4878419;29;20502;-61
2023/05/30 07:40:30;;;;;;;3.88;1.40;;;13.50;99.90;;;;;;4891788;29;20087;-61
2023/05/30 07:42:56;;;;;;;5.47;1.65;;;14.20;99.90;;;;;;4902319;29;20048;-61
2023/05/30 07:45:21;;;;;;;4.03;1.50;;;13.80;99.90;;;;;;4909678;29;20514;-61
2023/05/30 07:47:47;;;;;;;5.53;2.13;;;14.30;99.90;;;;;;4910962;29;20044;-61
2023/05/30 07:50:13;;;;;;;5.93;1.92;;;13.70;99.90;;;;;;4908289;29;20154;-61
2023/05/30 07:52:38;;;;;;;3.95;1.30;;;13.90;99.90;;;;;;4916876;29;20044;-61
2023/05/30 07:55:04;;;;;;;5.35;1.40;;;14.80;99.90;;;;;;4902314;29;20058;-61
2023/05/30 07:57:31;;;;;;;5.03;1.55;;;14.30;99.90;;;;;;4916096;29;20040;-61
2023/05/30 07:59:57;;;;;;;5.32;1.50;;;14.40;99.90;;;;;;4910071;29;20040;-60
2023/05/30 08:02:25;;;;;;;4.30;1.42;;;14.30;99.90;;;;;;4909379;29;20035;-61
2023/05/30 08:04:55;;;;;;;3.88;1.40;;;15.10;99.90;;;;;;4909932;29;20058;-61
2023/05/30 08:07:21;;;;;;;3.33;0.90;;;14.30;99.90;;;;;;4909822;29;20083;-61
2023/05/30 08:09:47;;;;;;;4.05;1.30;;;14.90;99.90;;;;;;4908437;29;20119;-61
2023/05/30 08:12:19;;;;;;;5.03;1.50;;;14.80;99.90;;;;;;4908342;29;20079;-60
2023/05/30 08:14:46;;;;;;;5.55;1.27;;;14.90;99.90;;;;;;4907956;29;20517;-61
2023/05/30 08:17:13;;;;;;;3.78;1.30;;;15.00;99.90;;;;;;4952501;23;20095;-61
2023/05/30 08:19:39;;;;;;;4.35;1.00;;;15.30;99.90;;;;;;4970532;28;20043;-62
2023/05/30 08:22:06;;;;;;;3.47;0.90;;;15.40;71.30;;;;;;4953195;28;20473;-61
2023/05/30 08:24:31;;;;;;;5.50;1.40;;;15.40;18.50;;;;;;4973927;28;20678;-62
2023/05/30 08:26:59;;;;;;;2.95;0.90;;;15.10;1.00;;;;;;4973892;28;20118;-61
2023/05/30 08:29:25;;;;;;;2.60;1.00;;;15.10;1.00;;;;;;4968176;28;20051;-61
2023/05/30 08:31:50;;;;;;;3.00;1.00;;;14.80;1.00;;;;;;4973825;28;20103;-61
2023/05/30 08:34:16;;;;;;;3.10;1.02;;;15.80;1.00;;;;;;4973776;28;20037;-62
2023/05/30 08:36:42;;;;;;;3.63;1.00;;;15.40;1.00;;;;;;4940296;28;20069;-63
2023/05/30 08:39:07;;;;;;;5.38;1.40;;;14.90;1.00;;;;;;4954844;28;20122;-62
2023/05/30 08:41:35;;;;;;;4.28;1.10;;;15.80;1.00;;;;;;4973739;28;20412;-62
2023/05/30 08:44:01;;;;;;;4.88;1.42;;;15.60;1.00;;;;;;4973315;28;20370;-63
2023/05/30 08:46:28;;;;;;;2.40;1.00;;;15.00;1.00;;;;;;4974043;28;20050;-63
2023/05/30 08:48:54;;;;;;;3.38;1.20;;;15.10;1.00;;;;;;4973903;28;20040;-63
2023/05/30 08:51:24;;;;;;;2.92;1.10;;;15.20;1.00;;;;;;4973463;28;20077;-63
2023/05/30 08:53:55;;;;;;;3.50;1.15;;;15.10;12.10;;;;;;4973392;28;20039;-62
2023/05/30 08:56:31;;;;;;;3.90;1.15;;;14.70;49.00;;;;;;4955970;28;20408;-62
2023/05/30 08:59:00;;;;;;;3.58;1.10;;;15.10;66.70;;;;;;4973255;28;20532;-63
2023/05/30 09:01:27;;;;;;;2.88;0.85;;;14.20;99.90;;;;;;4955882;28;20039;-62
2023/05/30 09:03:54;;;;;;;3.08;1.05;;;14.20;99.90;;;;;;4973569;28;20114;-63
2023/05/30 09:06:21;;;;;;;6.32;1.40;;;14.60;99.90;;;;;;4971731;28;20133;-63
2023/05/30 09:08:51;;;;;;;4.20;1.17;;;15.00;99.90;;;;;;4973201;28;20125;-62
2023/05/30 09:11:18;;;;;;;3.15;1.10;;;15.20;99.90;;;;;;4970580;28;20412;-61
2023/05/30 09:13:45;;;;;;;4.18;1.20;;;15.70;99.90;;;;;;4973451;28;20100;-61
2023/05/30 09:16:11;;;;;;;4.85;1.23;;;15.60;99.90;;;;;;4972838;28;20053;-61
2023/05/30 09:18:37;;;;;;;5.22;1.63;;;15.30;99.90;;;;;;4973205;28;20082;-61
2023/05/30 09:21:03;;;;;;;5.20;1.55;;;15.30;99.90;;;;;;4972673;28;20034;-61
2023/05/30 09:23:29;;;;;;;4.32;1.40;;;15.00;99.90;;;;;;4973072;28;20178;-61
2023/05/30 09:25:59;;;;;;;3.92;1.30;;;15.10;81.50;;;;;;4973449;28;20052;-61
2023/05/30 09:28:26;;;;;;;3.83;1.35;;;15.00;31.40;;;;;;4951929;28;20047;-61
2023/05/30 09:30:57;;;;;;;3.85;1.42;;;14.70;15.70;;;;;;4973082;28;20070;-61
2023/05/30 09:33:23;;;;;;;4.95;1.35;;;15.00;17.90;;;;;;4973176;28;20445;-61
2023/05/30 09:35:57;;;;;;;3.47;1.40;;;15.30;6.90;;;;;;4956155;28;20075;-61
2023/05/30 09:38:24;;;;;;;3.75;1.40;;;15.80;1.00;;;;;;4974090;28;20035;-61
2023/05/30 09:40:56;;;;;;;4.05;1.17;;;15.90;1.00;;;;;;4957252;28;20053;-61
2023/05/30 09:43:35;;;;;;;5.53;1.40;;;15.60;1.00;;;;;;4979252;28;20098;-61
2023/05/30 09:46:05;;;;;;;3.83;1.10;;;15.90;1.00;;;;;;4971597;28;20043;-62
2023/05/30 09:48:32;;;;;;;4.45;0.95;;;16.20;99.90;;;;;;4972431;28;20043;-61
2023/05/30 09:51:01;;;;;;;3.67;1.20;;;15.60;99.90;;;;;;4972897;28;20030;-61
2023/05/30 09:53:29;;;;;;;4.95;1.58;;;15.80;99.90;;;;;;4972449;28;20125;-62
2023/05/30 09:55:55;;;;;;;2.72;1.00;;;15.40;99.90;;;;;;4954960;28;20097;-61
2023/05/30 09:58:22;;;;;;;4.32;1.23;;;15.10;99.90;;;;;;4954661;28;20046;-61
2023/05/30 10:00:52;;;;;;;4.25;1.30;;;;;;;;;;4971667;28;20030;-61
2023/05/30 10:03:41;;;;;;;3.83;1.20;;;14.90;99.90;;;;;;4972253;28;20046;-61
2023/05/30 10:06:12;;;;;;;4.85;1.75;;;;;;;;;;4971333;28;20054;-62
2023/05/30 10:08:41;;;;;;;4.80;0.98;;;15.30;1.00;;;;;;4954891;28;20062;-62
2023/05/30 10:11:08;;;;;;;6.65;1.17;;;15.20;1.00;;;;;;4971539;28;20042;-62
2023/05/30 10:13:34;;;;;;;3.13;1.00;;;15.10;1.00;;;;;;4954612;28;20043;-62
2023/05/30 10:16:02;;;;;;;3.53;1.10;;;15.40;1.00;;;;;;4947093;28;20039;-61
2023/05/30 10:18:30;;;;;;;5.20;1.33;;;14.90;1.00;;;;;;4954875;28;20094;-62
2023/05/30 10:20:59;;;;;;;3.85;0.90;;;15.20;1.00;;;;;;4971496;28;20046;-62
2023/05/30 10:23:25;;;;;;;3.95;1.00;;;15.60;1.00;;;;;;4971700;28;20070;-61
2023/05/30 10:25:54;;;;;;;3.40;0.98;;;15.80;1.00;;;;;;4971859;28;20046;-62
2023/05/30 10:28:26;;;;;;;3.13;0.90;;;15.70;1.00;;;;;;4953908;28;20050;-61
2023/05/30 10:30:53;;;;;;;2.00;0.80;;;15.40;99.90;;;;;;4971290;28;20453;-64
2023/05/30 10:33:21;;;;;;;3.20;0.98;;;15.60;99.90;;;;;;4953906;28;20054;-61
2023/05/30 10:35:47;;;;;;;2.80;1.00;;;15.90;99.90;;;;;;4971613;28;20085;-61
2023/05/30 10:38:14;;;;;;;1.48;0.90;;;15.30;99.90;;;;;;4971303;28;20051;-61
2023/05/30 10:41:00;;;;;;;3.13;1.00;;;16.10;99.90;;;;;;4971335;28;20115;-61
2023/05/30 10:43:49;;;;;;;3.22;0.90;;;16.00;99.90;;;;;;4953793;28;20039;-62
2023/05/30 10:46:27;;;;;;;1.85;0.90;;;16.10;99.90;;;;;;4969416;28;20154;-62
2023/05/30 10:49:06;;;;;;;2.55;0.93;;;16.40;99.90;;;;;;4971321;28;20046;-62
2023/05/30 10:52:07;;;;;;;3.33;1.00;;;16.30;99.90;;;;;;4964163;28;20042;-62
2023/05/30 10:54:35;;;;;;;3.70;1.25;;;17.00;99.90;;;;;;4964290;28;20046;-62
2023/05/30 10:57:27;;;;;;;3.05;1.10;;;16.60;99.90;;;;;;4971614;28;20043;-62
2023/05/30 10:59:59;;;;;;;3.03;1.00;;;16.80;99.90;;;;;;4938222;28;20058;-62
2023/05/30 11:02:38;;;;;;;3.92;1.08;;;17.30;99.90;;;;;;4970611;28;20035;-62
2023/05/30 11:05:07;;;;;;;2.63;0.90;;;17.40;99.90;;;;;;4971107;28;20547;-62
2023/05/30 11:07:42;;;;;;;2.25;1.02;;;17.00;99.90;;;;;;4970874;28;20042;-62
2023/05/30 11:10:14;;;;;;;3.60;0.98;;;17.00;99.90;;;;;;4971087;28;20101;-62
2023/05/30 11:12:44;;;;;;;3.10;1.00;;;17.20;99.90;;;;;;4970885;28;20070;-62
2023/05/30 11:15:15;;;;;;;4.07;1.35;;;16.90;99.90;;;;;;4970910;28;20097;-62
2023/05/30 11:17:41;;;;;;;4.13;1.33;;;17.20;99.90;;;;;;4971025;28;20045;-62
2023/05/30 11:20:14;;;;;;;3.50;1.15;;;17.20;99.90;;;;;;4953429;28;20047;-62
2023/05/30 11:22:41;;;;;;;2.75;1.10;;;17.00;99.90;;;;;;4953921;28;20114;-62
2023/05/30 11:25:25;;;;;;;4.22;1.30;;;17.00;99.90;;;;;;4953861;28;20132;-62
2023/05/30 11:28:12;;;;;;;3.00;1.00;;;17.70;99.90;;;;;;4970957;28;20046;-62
2023/05/30 11:30:42;;;;;;;3.28;1.05;;;17.90;99.90;;;;;;4953392;28;20057;-62
2023/05/30 11:33:21;;;;;;;3.00;1.10;;;17.60;99.90;;;;;;4971100;28;20042;-62
2023/05/30 11:35:50;;;;;;;1.80;0.80;;;17.70;99.90;;;;;;4965330;28;20039;-62
2023/05/30 11:38:18;;;;;;;3.50;1.00;;;18.90;99.90;;;;;;4970666;28;20096;-62
2023/05/30 11:40:43;;;;;;;3.22;0.90;;;18.50;92.20;;;;;;4953218;28;20039;-62
2023/05/30 11:43:09;;;;;;;3.13;1.00;;;19.00;83.50;;;;;;4970590;28;20039;-62
2023/05/30 11:45:35;;;;;;;3.17;1.10;;;18.50;67.80;;;;;;4970829;28;20158;-62
2023/05/30 11:48:10;;;;;;;3.45;1.00;;;19.10;59.00;;;;;;4953968;28;20038;-62
2023/05/30 11:50:37;;;;;;;4.68;1.23;;;19.00;28.90;;;;;;4967462;28;20050;-62
2023/05/30 11:53:09;;;;;;;3.97;1.20;;;18.80;41.80;;;;;;4970668;28;20515;-62
2023/05/30 11:55:35;;;;;;;6.85;1.67;;;18.30;47.10;;;;;;4970689;28;20110;-62
2023/05/30 11:58:01;;;;;;;4.40;1.60;;;19.00;31.80;;;;;;4972965;28;20067;-62
2023/05/30 12:00:26;;;;;;;5.07;1.65;;;18.60;40.80;;;;;;4973953;28;20180;-62
2023/05/30 12:02:52;;;;;;;4.25;1.60;;;18.30;34.70;;;;;;4974400;28;20030;-62
2023/05/30 12:05:18;;;;;;;4.93;1.40;;;18.70;44.80;;;;;;4956931;28;20054;-62
2023/05/30 12:07:43;;;;;;;5.05;1.83;;;18.50;37.90;;;;;;4974222;28;20041;-62
2023/05/30 12:10:09;;;;;;;4.72;1.80;;;18.80;44.10;;;;;;4973680;28;20396;-62
2023/05/30 12:12:35;;;;;;;4.30;1.48;;;18.90;38.30;;;;;;4973990;28;20042;-62
2023/05/30 12:15:03;;;;;;;6.13;1.30;;;19.20;32.00;;;;;;4956841;28;20043;-62
2023/05/30 12:17:29;;;;;;;3.38;1.23;;;18.40;43.10;;;;;;4974037;28;20400;-62
2023/05/30 12:19:56;;;;;;;3.47;1.23;;;18.20;29.30;;;;;;4969336;28;20041;-62
2023/05/30 12:22:24;;;;;;;5.32;1.33;;;18.00;29.90;;;;;;4974033;28;20043;-62
2023/05/30 12:24:51;;;;;;;4.38;1.50;;;18.80;33.70;;;;;;4973814;28;20046;-63
2023/05/30 12:27:19;;;;;;;3.50;1.10;;;19.30;31.10;;;;;;4973966;28;20086;-62
2023/05/30 12:29:44;;;;;;;3.85;1.10;;;19.10;25.50;;;;;;4974397;28;20157;-62
2023/05/30 12:32:10;;;;;;;3.65;1.30;;;18.90;13.40;;;;;;4973434;28;20039;-63
2023/05/30 12:34:42;;;;;;;3.47;1.20;;;19.00;9.20;;;;;;4974225;28;20110;-62
2023/05/30 12:37:10;;;;;;;3.67;1.30;;;19.30;13.10;;;;;;4973542;28;20039;-62
2023/05/30 12:39:51;;;;;;;3.90;1.20;;;19.20;7.60;;;;;;4974461;28;20114;-62
2023/05/30 12:42:24;;;;;;;3.83;1.20;;;19.20;1.00;;;;;;4956072;28;20412;-62
2023/05/30 12:44:55;;;;;;;3.22;1.20;;;18.90;16.30;;;;;;4974058;28;20043;-62
2023/05/30 12:47:22;;;;;;;3.22;1.20;;;18.50;19.00;;;;;;4956128;28;20042;-62
2023/05/30 12:49:48;;;;;;;3.30;1.13;;;18.40;15.30;;;;;;4973644;28;20093;-62
2023/05/30 12:52:15;;;;;;;3.75;1.30;;;18.70;15.60;;;;;;4939744;28;20054;-62
2023/05/30 12:54:42;;;;;;;4.65;1.05;;;18.90;17.00;;;;;;4973564;28;20043;-62
2023/05/30 12:57:08;;;;;;;6.85;1.48;;;18.90;14.50;;;;;;4956202;28;20091;-62
2023/05/30 12:59:35;;;;;;;4.53;1.60;;;19.80;7.20;;;;;;4973188;28;20077;-62
2023/05/30 13:02:00;;;;;;;3.95;1.10;;;19.70;1.00;;;;;;4972930;28;20061;-62
2023/05/30 13:04:26;;;;;;;4.05;1.15;;;19.80;1.00;;;;;;4972782;28;20110;-62
2023/05/30 13:06:52;;;;;;;3.65;1.30;;;19.40;1.00;;;;;;4956013;28;20054;-62
2023/05/30 13:09:18;;;;;;;3.20;1.00;;;19.70;1.00;;;;;;4972583;28;20316;-62
2023/05/30 13:11:45;;;;;;;2.55;0.90;;;19.40;1.00;;;;;;4955691;28;20038;-62
2023/05/30 13:14:11;;;;;;;4.05;1.10;;;19.70;1.00;;;;;;4972711;28;20117;-62
2023/05/30 13:16:36;;;;;;;3.28;1.00;;;19.50;1.00;;;;;;4972957;28;20437;-62
2023/05/30 13:19:02;;;;;;;3.38;1.10;;;19.40;1.00;;;;;;4973451;28;20327;-62
2023/05/30 13:21:28;;;;;;;3.53;1.05;;;19.20;1.00;;;;;;4947164;28;20039;-62
2023/05/30 13:23:54;;;;;;;4.53;1.27;;;19.10;1.00;;;;;;4973398;28;20042;-62
2023/05/30 13:26:20;;;;;;;4.45;1.23;;;18.90;1.00;;;;;;4972591;28;20196;-62
2023/05/30 13:28:45;;;;;;;3.97;1.20;;;19.00;1.00;;;;;;4972597;28;20039;-62
2023/05/30 13:31:13;;;;;;;5.70;1.40;;;19.40;1.00;;;;;;4972434;28;20133;-62
2023/05/30 13:33:38;;;;;;;4.35;1.35;;;19.40;1.00;;;;;;4970108;28;20042;-62
2023/05/30 13:36:04;;;;;;;4.38;1.42;;;18.60;1.00;;;;;;4973016;28;20074;-62
2023/05/30 13:38:30;;;;;;;4.25;1.30;;;18.80;1.00;;;;;;4954964;28;20038;-62
2023/05/30 13:40:56;;;;;;;4.07;1.42;;;18.20;1.00;;;;;;4954778;28;20041;-62
2023/05/30 13:43:22;;;;;;;3.90;1.48;;;18.80;1.00;;;;;;4953731;28;20042;-62
2023/05/30 13:45:48;;;;;;;4.80;1.38;;;18.30;1.00;;;;;;4952159;28;20105;-62
2023/05/30 13:48:21;;;;;;;4.15;1.30;;;17.80;1.00;;;;;;4971633;28;20074;-62
2023/05/30 13:50:48;;;;;;;4.53;1.70;;;17.80;1.20;;;;;;4971524;28;20094;-61
2023/05/30 13:53:14;;;;;;;3.75;1.40;;;17.70;5.00;;;;;;4953207;28;20042;-61
2023/05/30 13:55:39;;;;;;;3.80;1.33;;;17.20;8.30;;;;;;4972477;28;20046;-62
2023/05/30 13:58:05;;;;;;;3.90;1.45;;;18.00;10.90;;;;;;4971461;28;20030;-65
2023/05/30 14:00:31;;;;;;;3.55;1.30;;;17.50;12.00;;;;;;4971562;28;20130;-65
2023/05/30 14:02:56;;;;;;;4.30;1.27;;;17.50;13.80;;;;;;4954967;28;20030;-63
2023/05/30 14:05:22;;;;;;;4.43;1.50;;;17.50;14.30;;;;;;4972425;28;20034;-65
2023/05/30 14:07:49;;;;;;;4.38;1.45;;;17.70;9.30;;;;;;4972206;28;20061;-64
2023/05/30 14:10:17;;;;;;;4.88;1.80;;;17.50;14.30;;;;;;4972074;28;20414;-63
2023/05/30 14:12:43;;;;;;;5.03;1.58;;;17.60;12.50;;;;;;4954589;28;20078;-64